Create Custom Reports and Graphics: Custom Report

Map - Northern Napa County

Map

15 Minute Data

Map - Southern Napa County

Map

15 Minute Data

Northeast Napa County

11 Stations

15 Minute Data | America/Los_Angeles
as of 5/6/26 2:39 AM PDT
Station Date Time Temp (°F) RH (%) Dew Pt (°F) Wind Spd (mph) Wind Dir (°) Wind Gust (mph) Latest Rain (In) Daily Rain (In) Daily Max Temp (°F) Daily Min Temp (°F)
Dollarhide 17B Remote 5/6/26 0230 56.7   4.4 86   13 52.4   0.5 - - - - - 57.0   4.5 56.6   4.5
Dollarhide 18A Remote 5/6/26 0230 56.1   4.7 85   13 51.8   0.9 - - - - - 56.5   4.9 56.0   4.8
Dollarhide 1AS Remote 5/6/26 0230 56.7   4.5 84   10 52.0   1.5 2.3   1.3 S | 181 4.3   2.1 - - 57.2   4.7 56.6   4.7
Angwin 5/6/26 0230 51.0   5.0 94   6 49.4   3.4 1.7   1.3 NNW | 340 3.3   4.6 0.00 0.00 51.1   4.8 50.5   4.6
Lower Angwin (Pioneer) 5/6/26 0230 51.1   3.4 - - 1.3   2.1 SW | 232 3.1   6.0 - - 51.7   3.6 51.0   3.4
Lower Chiles Valley (Brown) 5/6/26 0230 54.4   3.4 86   8 50.2   0.9 0.8   1.6 SSW | 213 2.3   3.1 0.00 0.00 54.9   3.8 54.3   3.4
Deer Park 5/6/26 0230 54.9   3.7 84   12 50.0   0.1 1.2   1.9 NW | 309 2.5   3.8 0.00 0.00 55.2   3.7 54.9   3.7
Moss Creek Vineyard/Reservior 5/6/26 0045 56.2   5.2 82   14 50.7   1.0 - - - 0.00 0.01 64.9   0.4 50.8   7.6
Montesol 5/6/26 0230 52.0   3.6 - - - - - 0.00 0.00 52.4   3.3 51.8   3.7
Dollarhide Base 5/6/26 0230 56.8   4.8 84   14 51.9   0.5 0.2   2.3 SW | 216 1.4   5.4 0.00 0.00 57.2   4.8 56.7   4.7
Pope Valley (Weeks Lake) 5/6/26 0230 56.2   4.5 80   20 50.1   1.5 0.4   0.7 ESE | 113 1.5   1.8 0.00 0.00 56.6   4.7 56.0   4.5
Max     56.8 94 52.4 2.3 - 4.3 0.00 0.00 57.2 56.7
Avg     54.6 85 51.0 1.1 - 2.6 0.00 - - -
Min     51.0 80 49.4 0.2 - 1.4 0.00 0.00 51.1 50.5

Northern & Central Napa County

32 Stations

15 Minute Data | America/Los_Angeles
as of 5/6/26 2:39 AM PDT
Station Date Time Temp (°F) RH (%) Dew Pt (°F) Wind Spd (mph) Wind Dir (°) Wind Gust (mph) Latest Rain (In) Daily Rain (In) Daily Max Temp (°F) Daily Min Temp (°F)
Calistoga-North 5/6/26 0230 56.2   4.0 87   11 52.4   0.7 - - - 0.00 0.00 56.5   3.5 56.0   4.0
Stags Leap Dist (Chimney Rock) 5/6/26 0230 56.5   3.5 86   13 52.2   0.4 2.2   0.0 SE | 131 4.5   0.4 0.00 0.00 56.9   3.8 56.4   3.5
Diamond Mtn (McEachran) 5/6/26 0230 54.9   3.1 87   11 51.1   0.1 - - - - - 55.3   3.1 54.9   3.2
Diamond Mtn (Schramsberg) 5/6/26 0230 53.6   3.2 89   11 50.6   0.2 - - - 0.00 0.00 54.1   3.1 53.6   3.2
Stags Leap Dist (Silverado Vineyards) 5/6/26 0230 55.5   3.6 81   13 49.9   0.4 2.2   0.3 ESE | 120 5.0   0.3 0.00 0.00 56.1   4.0 55.4   3.6
Oak Knoll-East (Ranch 53) 5/6/26 0230 56.1   3.4 85   10 51.8   0.3 1.5   0.4 ESE | 114 2.7   0.4 0.00 0.00 56.6   3.5 56.0   3.4
Rutherford-North (Mee Ln) 5/6/26 0230 56.0   7.7 84   13 51.0   3.8 1.7   0.5 ESE | 117 3.1   2.0 0.00 0.00 56.8   7.9 55.8   7.7
Frisinger Napa-NW 5/6/26 0230 56.2   3.3 86   9 52.1   0.4 1.2   0.2 NW | 314 2.3   0.1 0.00 0.00 56.8   3.4 56.2   3.4
Napa-North (Ranch 29) 5/6/26 0230 56.1   3.8 85   15 51.8   0.5 0.0   1.6 N | 0 0.0   4.5 0.00 0.00 56.5   4.0 56.0   3.9
St. Helena (NVV Office) 5/6/26 0230 57.4   4.3 - - 1.0   0.2 ENE | 77 2.4   1.0 0.00 0.00 58.2   4.8 57.2   4.3
Crossroads Ranch 5/6/26 0230 56.4   3.4 82   12 50.8   0.3 2.8   2.5 SE | 139 4.7   3.0 0.00 0.00 57.3   4.2 56.4   3.7
Oakville 5/6/26 0230 56.2   3.5 82   15 50.6   1.1 2.7   0.7 SE | 135 4.6   2.3 0.00 0.00 57.0   4.3 56.0   3.7
OV561-East 5/6/26 0230 56.4   3.6 - - - - - - - 57.1   4.1 56.4   3.7
OV518-West 5/6/26 0230 56.4   3.5 - - - - - - - 57.2   4.2 56.3   3.8
Napa-NW (Ranch 54) 5/6/26 0230 56.6   3.4 84   15 52.0   1.2 0.1   0.1 NNE | 25 1.1   0.7 0.00 0.00 57.3   3.8 56.5   3.7
Calistoga (Ranch 78) 5/6/26 0230 56.2   3.0 83   4 51.2   1.6 1.1   1.8 WNW | 286 2.5   3.6 0.00 0.00 56.4   2.9 56.2   3.1
Yountville-SE (Ranch 85) 5/6/26 0230 56.2   3.4 85   15 51.8   1.0 2.6   0.5 SSE | 161 4.8   1.4 0.00 0.00 56.7   3.6 56.1   3.4
Yountville-South (Ranch 87) 5/6/26 0230 56.2   3.5 86   13 52.2   0.5 0.5   0.8 SE | 143 1.6   1.4 0.00 0.00 56.6   3.7 56.1   3.4
Rutherford Hill Estate 5/6/26 0230 55.2   3.9 85   15 50.8   0.6 0.1   2.4 S | 171 1.3   6.8 0.00 0.00 55.8   4.0 55.1   3.8
Rutherford (STS) 5/6/26 0230 56.4   4.0 88   3 53.0   4.9 1.2   0.7 SE | 129 2.8   0.8 0.00 0.00 57.1   4.5 56.3   4.1
Borreo (Soda Canyon) 5/6/26 0230 53.8   3.3 86   12 49.6   0.1 0.0   0.7 ESE | 115 0.0   2.8 0.00 0.00 54.1   3.4 53.7   3.3
Oakville-NE (Ranch 88) 5/6/26 0230 56.2   3.7 80   19 50.2   2.1 1.7   1.6 S | 173 4.6   1.5 0.00 0.00 56.9   4.3 56.1   3.8
Soda Canyon 5/6/26 0230 55.9   3.3 84   8 51.2   0.8 1.0   0.6 SE | 130 3.0   1.2 0.00 0.00 56.2   3.4 55.8   3.3
Silver Oak OV 5/6/26 0230 56.4   3.5 82   14 51.1   0.7 3.1   1.3 SE | 134 5.4   2.3 0.00 0.00 57.3   4.3 56.4   3.8
Tiara Fria (East St. Helena) 5/6/26 0230 57.1   4.1 81   15 51.3   0.5 1.9   0.8 ESE | 107 3.5   1.4 0.00 0.00 57.9   4.5 57.0   4.1
To Kalon Remote (TKKE) 5/6/26 0230 56.6   3.5 - - - - - - - 57.6   4.3 56.6   3.7
To Kalon 5/6/26 0230 56.1   3.4 86   11 51.9   0.1 1.5   1.0 SSE | 159 4.0   1.0 0.00 0.00 56.8   4.0 56.0   3.6
To Kalon Remote (TKN5) 5/6/26 0230 56.6   3.4 - - - - - - - 57.2   3.5 56.6   3.7
St. Helena-North 5/6/26 0230 56.8   3.8 79   21 50.3   2.7 0.2   0.1 WNW | 297 1.1   0.0 0.00 0.00 57.3   3.9 56.7   3.8
Twomey Calistoga 5/6/26 0230 55.9   3.4 86   6 52.0   1.5 0.5   1.2 SSW | 205 1.4   3.7 0.00 0.00 56.3   3.2 55.9   3.4
Wappo Hill Floor 5/6/26 0230 56.0   5.5 84   16 51.2   0.7 2.0   0.2 SE | 146 4.9   0.8 0.00 0.00 56.6   5.8 56.0   5.6
Yountville (Ranch 67) 5/6/26 0230 55.6   3.6 80   15 49.6   1.2 1.8   0.2 SSE | 158 3.4   2.3 0.00 0.00 56.4   4.2 55.5   3.8
Max     57.4 89 53.0 3.1 - 5.4 0.00 0.00 58.2 57.2
Avg     56.1 84 51.3 1.4 - 3.0 0.00 - - -
Min     53.6 79 49.6 0.0 - 0.0 0.00 0.00 54.1 53.6

Southern Napa County

23 Stations

15 Minute Data | America/Los_Angeles
as of 5/6/26 2:39 AM PDT
Station Date Time Temp (°F) RH (%) Dew Pt (°F) Wind Spd (mph) Wind Dir (°) Wind Gust (mph) Latest Rain (In) Daily Rain (In) Daily Max Temp (°F) Daily Min Temp (°F)
Carneros (Milton Rd) 5/6/26 0230 55.7   2.9 83   10 50.7   0.2 - - - 0.00 0.00 55.8   2.6 55.6   2.9
Carneros Lower (Ranch 81) 5/6/26 0230 55.0   3.0 87   86 51.2   115.7 0.0   0.6 E | 91 0.9   1.8 0.00 0.00 55.0   2.4 55.0   3.0
Carneros Upper (Ranch 81) 5/6/26 0230 54.0   2.7 87   86 50.2   105.5 6.9   0.3 WSW | 256 10.5   0.2 - - 54.3   2.3 54.0   2.7
Carneros (Mitsuko) 5/6/26 0230 55.5   2.9 - - - - - - - 55.6   2.7 55.4   2.8
Mount George (Napa East) 5/6/26 0230 56.3   2.4 85   12 52.0   1.0 0.5   1.5 SE | 126 2.3   2.3 0.00 0.00 56.6   2.7 56.3   2.8
Napa-East (Palmaz 300') 5/6/26 0230 55.3   3.4 85   14 51.0   0.9 0.0   2.1 N | 1 0.5   5.0 0.00 0.00 55.7   3.5 55.2   3.4
Napa-East (Palmaz 1200') 5/6/26 0230 52.1   3.1 100   25 52.1   10.7 0.3   0.8 NW | 308 1.8   3.1 - - 52.1   2.9 51.6   2.7
Napa-East (Palmaz 1400') 5/6/26 0230 51.4   3.3 93   7 49.6   1.5 0.6   1.6 SW | 235 2.0   4.8 0.00 0.00 51.5   3.0 51.1   3.2
Dealy Lane (Ranch 80) 5/6/26 0230 55.6   3.3 82   12 50.4   0.5 1.2   1.0 W | 260 2.9   2.6 0.00 0.00 55.7   3.3 55.4   3.2
Suscol Mtn (Ranch 93) 5/6/26 0230 51.5   2.1 94   6 49.8   0.4 0.1   7.9 W | 272 0.9   10.7 0.00 0.00 51.6   1.8 51.4   2.0
Carneros (Saintsbury) 5/6/26 0230 54.7   5.7 84   16 50.0   1.1 3.2   1.7 SW | 233 5.1   2.8 0.00 0.00 54.8   5.4 54.6   5.8
Sugarloaf West 5/6/26 0230 55.5   2.6 87   8 51.8   0.1 1.8   0.6 ESE | 112 3.0   2.6 0.00 0.00 56.2   3.0 55.5   2.7
Suscol Upper (Ranch 92) 5/6/26 0230 52.3   2.2 92   8 50.1   0.0 0.0   5.9 N | 0 0.0   9.9 0.00 0.00 52.5   2.0 52.3   2.3
Stanly (Ranch 45) 5/6/26 0230 55.2   5.1 84   11 50.5   1.8 3.0   0.9 WSW | 246 5.5   1.1 0.00 0.00 55.4   4.6 55.1   5.1
Suscol Lower (Ranch 35) 5/6/26 0230 54.7   2.6 86   14 50.6   1.5 1.7   2.1 SSE | 151 3.3   4.8 0.00 0.00 55.1   2.6 54.7   2.7
Napa-South (Toyon Farms) 5/6/26 0230 55.7   3.2 90   9 53.0   0.5 0.0   0.1 N | 0 0.0   2.1 0.00 0.00 56.1   3.4 55.6   3.3
Toyon Remote 1 5/6/26 0230 55.1   2.8 - - - - - - - 55.5   3.1 55.0   3.1
Toyon Remote 2 5/6/26 0230 56.0   3.0 - - - - - - - 56.4   3.3 55.8   3.2
Toyon Remote 3 5/6/26 0230 55.9   3.2 - - - - - - - 56.1   3.4 55.8   3.4
Napa-West Lower (Truchard) 5/6/26 0230 56.1   4.8 82   16 50.6   0.1 - - - - - 56.3   4.9 56.0   4.9
Napa-West Upper (Truchard) 5/6/26 0230 55.5   5.0 85   85 51.1   116.9 0.0   5.4 N | 0 0.0   7.8 0.00 0.00 55.6   4.9 55.4   5.1
Mt. Veeder 5/6/26 0230 51.6   3.2 92   8 49.3   1.0 0.0   0.7 N | 0 0.0   2.9 0.00 0.00 52.2   3.7 51.1   3.0
Wooden Valley 5/6/26 0230 55.0   4.4 78   14 48.3   0.0 1.3   1.4 WSW | 240 5.1   1.0 0.00 0.00 55.9   4.7 54.8   4.4
Max     56.3 100 53.0 6.9 - 10.5 0.00 0.00 56.6 56.3
Avg     54.6 87 50.6 1.2 - 2.6 0.00 - - -
Min     51.4 78 48.3 0.0 - 0.0 0.00 0.00 51.5 51.1